sensor_id;sensor_type;location;lat;lon;timestamp;pressure;altitude;pressure_sealevel;temperature
78669;BMP280;67984;45.118;20.724;2023-04-08T00:05:03;100655.97;;;4.19
78669;BMP280;67984;45.118;20.724;2023-04-08T00:15:04;100660.41;;;4.30
78669;BMP280;67984;45.118;20.724;2023-04-08T00:25:06;100661.06;;;4.27
78669;BMP280;67984;45.118;20.724;2023-04-08T00:35:08;100660.53;;;4.34
78669;BMP280;67984;45.118;20.724;2023-04-08T00:45:09;100656.44;;;4.33
78669;BMP280;67984;45.118;20.724;2023-04-08T00:55:10;100661.81;;;4.28
78669;BMP280;67984;45.118;20.724;2023-04-08T01:05:20;100655.69;;;4.32
78669;BMP280;67984;45.118;20.724;2023-04-08T01:15:25;100656.25;;;4.38
78669;BMP280;67984;45.118;20.724;2023-04-08T01:25:32;100651.44;;;4.48
78669;BMP280;67984;45.118;20.724;2023-04-08T01:35:34;100649.72;;;4.52
78669;BMP280;67984;45.118;20.724;2023-04-08T01:45:35;100649.53;;;4.57
78669;BMP280;67984;45.118;20.724;2023-04-08T01:55:37;100648.69;;;4.65
78669;BMP280;67984;45.118;20.724;2023-04-08T02:05:39;100646.78;;;4.74
78669;BMP280;67984;45.118;20.724;2023-04-08T02:15:45;100649.38;;;4.86
78669;BMP280;67984;45.118;20.724;2023-04-08T02:25:49;100651.03;;;4.90
78669;BMP280;67984;45.118;20.724;2023-04-08T02:35:53;100649.63;;;4.93
78669;BMP280;67984;45.118;20.724;2023-04-08T02:45:56;100647.78;;;4.93
78669;BMP280;67984;45.118;20.724;2023-04-08T02:55:57;100651.56;;;4.96
78669;BMP280;67984;45.118;20.724;2023-04-08T03:05:58;100646.47;;;4.99
78669;BMP280;67984;45.118;20.724;2023-04-08T03:15:58;100648.09;;;5.04
78669;BMP280;67984;45.118;20.724;2023-04-08T03:26:00;100655.00;;;5.00
78669;BMP280;67984;45.118;20.724;2023-04-08T03:36:03;100665.13;;;5.05
78669;BMP280;67984;45.118;20.724;2023-04-08T03:46:04;100676.78;;;5.11
78669;BMP280;67984;45.118;20.724;2023-04-08T03:56:05;100683.66;;;5.19
78669;BMP280;67984;45.118;20.724;2023-04-08T04:06:06;100694.88;;;5.22
78669;BMP280;67984;45.118;20.724;2023-04-08T04:16:07;100697.28;;;5.27
78669;BMP280;67984;45.118;20.724;2023-04-08T04:26:08;100696.63;;;5.30
78669;BMP280;67984;45.118;20.724;2023-04-08T04:36:09;100705.25;;;5.34
78669;BMP280;67984;45.118;20.724;2023-04-08T04:46:10;100708.56;;;5.35
78669;BMP280;67984;45.118;20.724;2023-04-08T04:56:11;100724.00;;;5.43
78669;BMP280;67984;45.118;20.724;2023-04-08T05:06:11;100717.19;;;5.51
78669;BMP280;67984;45.118;20.724;2023-04-08T05:16:12;100722.47;;;5.54
78669;BMP280;67984;45.118;20.724;2023-04-08T05:26:13;100730.69;;;5.68
78669;BMP280;67984;45.118;20.724;2023-04-08T05:36:13;100737.22;;;5.78
78669;BMP280;67984;45.118;20.724;2023-04-08T05:46:14;100747.16;;;5.88
78669;BMP280;67984;45.118;20.724;2023-04-08T05:56:15;100757.59;;;6.03
78669;BMP280;67984;45.118;20.724;2023-04-08T06:06:16;100756.47;;;6.28
78669;BMP280;67984;45.118;20.724;2023-04-08T06:16:16;100763.25;;;6.60
78669;BMP280;67984;45.118;20.724;2023-04-08T06:26:17;100763.00;;;6.92
78669;BMP280;67984;45.118;20.724;2023-04-08T06:36:18;100749.50;;;7.33
78669;BMP280;67984;45.118;20.724;2023-04-08T06:46:18;100767.59;;;7.60
78669;BMP280;67984;45.118;20.724;2023-04-08T06:56:20;100781.94;;;7.73
78669;BMP280;67984;45.118;20.724;2023-04-08T07:06:22;100777.34;;;7.82
78669;BMP280;67984;45.118;20.724;2023-04-08T07:16:23;100780.78;;;8.05
78669;BMP280;67984;45.118;20.724;2023-04-08T07:26:23;100786.00;;;8.42
78669;BMP280;67984;45.118;20.724;2023-04-08T07:36:24;100801.31;;;8.66
78669;BMP280;67984;45.118;20.724;2023-04-08T07:46:25;100807.53;;;9.03
78669;BMP280;67984;45.118;20.724;2023-04-08T07:56:27;100817.03;;;8.92
78669;BMP280;67984;45.118;20.724;2023-04-08T08:06:28;100824.72;;;9.07
78669;BMP280;67984;45.118;20.724;2023-04-08T08:16:29;100822.63;;;9.64
78669;BMP280;67984;45.118;20.724;2023-04-08T08:26:33;100812.25;;;9.94
78669;BMP280;67984;45.118;20.724;2023-04-08T08:36:34;100822.44;;;10.35
78669;BMP280;67984;45.118;20.724;2023-04-08T08:46:35;100831.47;;;11.24
78669;BMP280;67984;45.118;20.724;2023-04-08T08:56:36;100831.63;;;11.41
78669;BMP280;67984;45.118;20.724;2023-04-08T09:06:37;100819.84;;;11.75
78669;BMP280;67984;45.118;20.724;2023-04-08T09:16:41;100837.53;;;11.38
78669;BMP280;67984;45.118;20.724;2023-04-08T09:26:45;100844.00;;;11.04
78669;BMP280;67984;45.118;20.724;2023-04-08T09:36:46;100845.22;;;10.78
78669;BMP280;67984;45.118;20.724;2023-04-08T09:57:00;100853.28;;;10.59
78669;BMP280;67984;45.118;20.724;2023-04-08T10:07:07;100846.19;;;10.63
78669;BMP280;67984;45.118;20.724;2023-04-08T10:17:26;100847.53;;;10.83
78669;BMP280;67984;45.118;20.724;2023-04-08T10:27:39;100861.69;;;11.21
78669;BMP280;67984;45.118;20.724;2023-04-08T10:37:43;100853.75;;;11.11
78669;BMP280;67984;45.118;20.724;2023-04-08T10:47:44;100857.88;;;11.15
78669;BMP280;67984;45.118;20.724;2023-04-08T10:57:45;100858.19;;;11.03
78669;BMP280;67984;45.118;20.724;2023-04-08T11:07:45;100854.47;;;11.08
78669;BMP280;67984;45.118;20.724;2023-04-08T11:17:47;100853.75;;;11.07
78669;BMP280;67984;45.118;20.724;2023-04-08T11:27:48;100855.38;;;11.22
78669;BMP280;67984;45.118;20.724;2023-04-08T11:37:51;100848.78;;;11.42
78669;BMP280;67984;45.118;20.724;2023-04-08T11:47:51;100843.94;;;12.22
78669;BMP280;67984;45.118;20.724;2023-04-08T11:57:54;100837.34;;;12.77
78669;BMP280;67984;45.118;20.724;2023-04-08T12:07:56;100830.25;;;13.15
78669;BMP280;67984;45.118;20.724;2023-04-08T12:18:00;100826.84;;;13.15
78669;BMP280;67984;45.118;20.724;2023-04-08T12:28:03;100820.84;;;13.32
78669;BMP280;67984;45.118;20.724;2023-04-08T12:38:04;100818.63;;;13.13
78669;BMP280;67984;45.118;20.724;2023-04-08T12:48:05;100819.78;;;12.84
78669;BMP280;67984;45.118;20.724;2023-04-08T12:58:05;100816.66;;;12.16
78669;BMP280;67984;45.118;20.724;2023-04-08T13:08:08;100811.75;;;11.94
78669;BMP280;67984;45.118;20.724;2023-04-08T13:18:08;100799.41;;;11.30
78669;BMP280;67984;45.118;20.724;2023-04-08T13:28:09;100812.97;;;10.96
78669;BMP280;67984;45.118;20.724;2023-04-08T13:38:10;100810.06;;;10.65
78669;BMP280;67984;45.118;20.724;2023-04-08T13:48:12;100810.50;;;10.34
78669;BMP280;67984;45.118;20.724;2023-04-08T13:58:13;100799.09;;;10.13
78669;BMP280;67984;45.118;20.724;2023-04-08T14:08:13;100804.97;;;10.06
78669;BMP280;67984;45.118;20.724;2023-04-08T14:18:14;100801.25;;;10.07
78669;BMP280;67984;45.118;20.724;2023-04-08T14:28:18;100803.81;;;10.04
78669;BMP280;67984;45.118;20.724;2023-04-08T14:38:18;100796.22;;;9.92
78669;BMP280;67984;45.118;20.724;2023-04-08T14:48:20;100805.84;;;9.88
78669;BMP280;67984;45.118;20.724;2023-04-08T14:58:21;100792.81;;;9.88
78669;BMP280;67984;45.118;20.724;2023-04-08T15:08:22;100794.28;;;9.85
78669;BMP280;67984;45.118;20.724;2023-04-08T15:18:23;100799.34;;;9.75
78669;BMP280;67984;45.118;20.724;2023-04-08T15:28:23;100797.00;;;9.66
78669;BMP280;67984;45.118;20.724;2023-04-08T15:38:25;100799.50;;;9.60
78669;BMP280;67984;45.118;20.724;2023-04-08T15:48:26;100802.81;;;9.57
78669;BMP280;67984;45.118;20.724;2023-04-08T15:58:27;100817.91;;;9.48
78669;BMP280;67984;45.118;20.724;2023-04-08T16:08:28;100812.63;;;9.41
78669;BMP280;67984;45.118;20.724;2023-04-08T16:18:29;100806.88;;;9.32
78669;BMP280;67984;45.118;20.724;2023-04-08T16:28:30;100812.75;;;9.25
78669;BMP280;67984;45.118;20.724;2023-04-08T16:38:31;100809.69;;;9.20
78669;BMP280;67984;45.118;20.724;2023-04-08T16:48:55;100813.22;;;9.08
78669;BMP280;67984;45.118;20.724;2023-04-08T16:58:58;100820.25;;;9.08
78669;BMP280;67984;45.118;20.724;2023-04-08T17:09:01;100823.88;;;9.03
78669;BMP280;67984;45.118;20.724;2023-04-08T17:19:03;100841.25;;;8.96
78669;BMP280;67984;45.118;20.724;2023-04-08T17:29:03;100855.25;;;8.88
78669;BMP280;67984;45.118;20.724;2023-04-08T17:39:04;100861.66;;;8.75
78669;BMP280;67984;45.118;20.724;2023-04-08T17:49:05;100872.78;;;8.72
78669;BMP280;67984;45.118;20.724;2023-04-08T17:59:05;100889.59;;;8.59
78669;BMP280;67984;45.118;20.724;2023-04-08T18:09:06;100900.56;;;8.49
78669;BMP280;67984;45.118;20.724;2023-04-08T18:19:07;100895.91;;;8.39
78669;BMP280;67984;45.118;20.724;2023-04-08T18:29:08;100919.38;;;8.27
78669;BMP280;67984;45.118;20.724;2023-04-08T18:39:08;100917.75;;;8.20
78669;BMP280;67984;45.118;20.724;2023-04-08T18:49:11;100930.16;;;8.11
78669;BMP280;67984;45.118;20.724;2023-04-08T18:59:12;100928.63;;;8.10
78669;BMP280;67984;45.118;20.724;2023-04-08T19:09:13;100937.44;;;8.05
78669;BMP280;67984;45.118;20.724;2023-04-08T19:19:14;100937.88;;;7.92
78669;BMP280;67984;45.118;20.724;2023-04-08T19:29:15;100939.69;;;7.76
78669;BMP280;67984;45.118;20.724;2023-04-08T19:39:17;100948.44;;;7.68
78669;BMP280;67984;45.118;20.724;2023-04-08T19:49:18;100953.63;;;7.68
78669;BMP280;67984;45.118;20.724;2023-04-08T19:59:21;100956.66;;;7.70
78669;BMP280;67984;45.118;20.724;2023-04-08T20:09:24;100953.19;;;7.66
78669;BMP280;67984;45.118;20.724;2023-04-08T20:19:25;100954.63;;;7.63
78669;BMP280;67984;45.118;20.724;2023-04-08T20:29:27;100940.69;;;7.56
78669;BMP280;67984;45.118;20.724;2023-04-08T20:39:29;100941.03;;;7.54
78669;BMP280;67984;45.118;20.724;2023-04-08T20:49:30;100948.81;;;7.54
78669;BMP280;67984;45.118;20.724;2023-04-08T20:59:31;100951.75;;;7.53
78669;BMP280;67984;45.118;20.724;2023-04-08T21:09:32;100958.84;;;7.56
78669;BMP280;67984;45.118;20.724;2023-04-08T21:19:34;100952.75;;;7.49
78669;BMP280;67984;45.118;20.724;2023-04-08T21:29:34;100950.47;;;7.47
78669;BMP280;67984;45.118;20.724;2023-04-08T21:39:35;100949.41;;;7.48
78669;BMP280;67984;45.118;20.724;2023-04-08T21:49:36;100944.00;;;7.41
78669;BMP280;67984;45.118;20.724;2023-04-08T21:59:36;100943.50;;;7.36
78669;BMP280;67984;45.118;20.724;2023-04-08T22:09:37;100948.16;;;7.30
78669;BMP280;67984;45.118;20.724;2023-04-08T22:19:40;100950.13;;;7.21
78669;BMP280;67984;45.118;20.724;2023-04-08T22:29:40;100956.47;;;7.08
78669;BMP280;67984;45.118;20.724;2023-04-08T22:39:41;100961.25;;;6.94
78669;BMP280;67984;45.118;20.724;2023-04-08T22:49:42;100960.31;;;6.87
78669;BMP280;67984;45.118;20.724;2023-04-08T22:59:43;100965.50;;;6.87
78669;BMP280;67984;45.118;20.724;2023-04-08T23:09:43;100964.44;;;6.76
78669;BMP280;67984;45.118;20.724;2023-04-08T23:19:44;100953.78;;;6.66
78669;BMP280;67984;45.118;20.724;2023-04-08T23:29:45;100957.66;;;6.48
78669;BMP280;67984;45.118;20.724;2023-04-08T23:39:45;100953.34;;;6.52
78669;BMP280;67984;45.118;20.724;2023-04-08T23:49:46;100952.28;;;6.29
78669;BMP280;67984;45.118;20.724;2023-04-08T23:59:47;100954.28;;;6.11
